Time;durP1;ratioP1;P1;durP2;ratioP2;P2;SDS_P1;SDS_P2;PMS_P1;PMS_P2;Temp;Humidity;BMP_temperature;BMP_pressure;BME280_temperature;BME280_humidity;BME280_pressure;Samples;Min_cycle;Max_cycle;Signal;HPM_P1;HPM_P2
2024/01/19 00:00:38;;;;;;;9.45;2.38;;;-0.90;99.90;;;;;;5112771;27;20128;-56
2024/01/19 00:03:04;;;;;;;8.65;2.47;;;-0.60;99.90;;;;;;5112034;28;20431;-55
2024/01/19 00:05:30;;;;;;;9.70;2.53;;;-0.50;99.90;;;;;;5024556;28;20186;-55
2024/01/19 00:07:56;;;;;;;7.00;2.25;;;-0.50;99.90;;;;;;5031386;28;20053;-55
2024/01/19 00:10:21;;;;;;;12.13;2.78;;;-0.70;99.90;;;;;;5027525;28;20045;-50
2024/01/19 00:12:47;;;;;;;9.93;2.63;;;-0.70;99.90;;;;;;5028957;28;20062;-52
2024/01/19 00:15:13;;;;;;;8.05;2.47;;;-0.30;99.90;;;;;;5029054;28;20053;-54
2024/01/19 00:17:39;;;;;;;6.38;2.53;;;-0.50;99.90;;;;;;5027774;28;20512;-53
2024/01/19 00:20:08;;;;;;;11.02;2.80;;;-0.80;99.90;;;;;;5028536;28;20055;-58
2024/01/19 00:22:34;;;;;;;9.27;2.95;;;-0.70;99.90;;;;;;5028731;28;20040;-56
2024/01/19 00:25:00;;;;;;;7.50;2.20;;;-0.50;99.90;;;;;;5027376;28;20038;-54
2024/01/19 00:27:25;;;;;;;10.57;2.88;;;-0.80;99.90;;;;;;5028974;28;20033;-57
2024/01/19 00:29:51;;;;;;;8.50;2.15;;;-0.50;99.90;;;;;;5041099;28;20032;-57
2024/01/19 00:32:17;;;;;;;8.45;2.45;;;-1.00;99.90;;;;;;5029755;28;20045;-53
2024/01/19 00:34:42;;;;;;;7.03;3.00;;;-1.00;99.90;;;;;;5027143;28;20398;-55
2024/01/19 00:37:08;;;;;;;9.18;2.47;;;-0.70;99.90;;;;;;5028079;28;20048;-57
2024/01/19 00:39:34;;;;;;;11.02;2.50;;;-0.60;99.90;;;;;;5027208;28;20029;-55
2024/01/19 00:41:59;;;;;;;10.02;2.30;;;-0.60;99.90;;;;;;5027250;28;20033;-55
2024/01/19 00:44:25;;;;;;;6.68;2.65;;;-0.80;99.90;;;;;;5028569;28;20406;-56
2024/01/19 00:46:51;;;;;;;11.55;2.13;;;-1.10;99.90;;;;;;5028416;28;20040;-53
2024/01/19 00:49:17;;;;;;;5.60;1.83;;;-0.70;99.90;;;;;;5083068;28;20054;-56
2024/01/19 00:51:43;;;;;;;7.78;1.98;;;-0.60;99.90;;;;;;5111186;28;20043;-54
2024/01/19 00:54:08;;;;;;;10.57;2.10;;;-0.70;99.90;;;;;;5090139;28;20063;-57
2024/01/19 00:56:34;;;;;;;7.63;1.60;;;-0.90;99.90;;;;;;5111138;28;20468;-56
2024/01/19 00:59:00;;;;;;;7.70;1.50;;;-1.10;99.90;;;;;;5110477;28;20035;-52
2024/01/19 01:01:25;;;;;;;6.82;1.75;;;-1.00;99.90;;;;;;5111588;28;20127;-56
2024/01/19 01:03:51;;;;;;;4.88;1.77;;;-1.10;99.90;;;;;;5111571;28;20051;-54
2024/01/19 01:06:17;;;;;;;5.28;1.50;;;-0.70;99.90;;;;;;5029505;28;20038;-53
2024/01/19 01:08:42;;;;;;;5.32;1.60;;;-1.00;99.90;;;;;;5075485;28;20114;-52
2024/01/19 01:11:08;;;;;;;5.40;1.77;;;-1.10;99.90;;;;;;5111202;28;20477;-55
2024/01/19 01:13:34;;;;;;;7.35;2.08;;;-0.70;99.90;;;;;;5110103;28;20093;-54
2024/01/19 01:16:01;;;;;;;9.77;1.80;;;-0.60;99.90;;;;;;5111410;28;20536;-55
2024/01/19 01:18:27;;;;;;;6.57;2.10;;;-1.10;99.90;;;;;;5109737;28;20043;-55
2024/01/19 01:20:52;;;;;;;7.53;2.40;;;-1.00;99.90;;;;;;5029668;28;20045;-57
2024/01/19 01:23:18;;;;;;;7.35;3.05;;;-0.90;99.90;;;;;;5027851;28;20057;-52
2024/01/19 01:25:44;;;;;;;7.68;2.50;;;-1.20;99.90;;;;;;5027919;28;20360;-55
2024/01/19 01:28:10;;;;;;;8.48;2.75;;;-1.00;99.90;;;;;;5097861;28;20032;-57
2024/01/19 01:30:37;;;;;;;8.30;2.88;;;-0.60;99.90;;;;;;5027943;28;20033;-57
2024/01/19 01:33:03;;;;;;;10.13;2.60;;;-1.20;99.90;;;;;;5027093;28;20041;-55
2024/01/19 01:35:29;;;;;;;8.23;2.75;;;-1.20;99.90;;;;;;5099408;28;20043;-55
2024/01/19 01:37:54;;;;;;;6.88;2.80;;;-0.70;99.90;;;;;;5068067;28;20496;-56
2024/01/19 01:40:20;;;;;;;10.93;2.97;;;-0.90;99.90;;;;;;5027902;28;20040;-55
2024/01/19 01:42:46;;;;;;;7.65;2.72;;;-1.20;99.90;;;;;;5026432;28;20070;-54
2024/01/19 01:45:12;;;;;;;9.10;2.67;;;-1.10;99.90;;;;;;5035069;28;20090;-55
2024/01/19 01:47:37;;;;;;;7.50;2.53;;;-1.00;99.90;;;;;;5024868;28;20036;-56
2024/01/19 01:50:04;;;;;;;12.30;2.83;;;-1.00;99.90;;;;;;5115040;28;20043;-55
2024/01/19 01:52:30;;;;;;;8.00;2.78;;;-1.00;99.90;;;;;;5114834;28;20435;-54
2024/01/19 01:54:56;;;;;;;7.18;2.78;;;-0.70;99.90;;;;;;5115136;28;20126;-58
2024/01/19 01:57:24;;;;;;;18.17;2.67;;;-0.40;99.90;;;;;;5111404;28;20123;-56
2024/01/19 01:59:51;;;;;;;8.60;2.33;;;-0.40;99.90;;;;;;5110608;28;20036;-57
2024/01/19 02:02:17;;;;;;;4.82;1.90;;;-0.70;99.90;;;;;;5114534;28;20048;-57
2024/01/19 02:04:43;;;;;;;8.77;2.13;;;-0.80;99.90;;;;;;5114920;28;20359;-55
2024/01/19 02:07:09;;;;;;;13.13;2.33;;;-0.70;99.90;;;;;;5114879;28;20100;-54
2024/01/19 02:09:34;;;;;;;10.80;2.13;;;-0.30;99.90;;;;;;5114741;28;20032;-57
2024/01/19 02:12:01;;;;;;;7.72;2.42;;;-0.70;99.90;;;;;;5108136;28;20073;-55
2024/01/19 02:14:27;;;;;;;8.20;1.90;;;-0.80;99.90;;;;;;5114610;28;20047;-56
2024/01/19 02:16:53;;;;;;;10.68;2.20;;;-0.80;99.90;;;;;;5114395;28;20092;-54
2024/01/19 02:19:18;;;;;;;8.65;2.00;;;-0.30;99.90;;;;;;5101878;28;20034;-56
2024/01/19 02:21:44;;;;;;;7.78;1.90;;;-0.30;99.90;;;;;;5030292;28;20121;-53
2024/01/19 02:24:14;;;;;;;4.65;1.60;;;-0.60;99.90;;;;;;5030783;28;20072;-58
2024/01/19 02:26:40;;;;;;;8.48;2.28;;;-0.40;99.90;;;;;;5030739;28;20476;-56
2024/01/19 02:29:06;;;;;;;8.93;2.10;;;-0.80;99.90;;;;;;5029087;28;20052;-55
2024/01/19 02:31:32;;;;;;;9.10;2.33;;;-1.00;99.90;;;;;;5029224;28;20052;-58
2024/01/19 02:33:58;;;;;;;5.90;1.88;;;-0.80;99.90;;;;;;5030458;28;20041;-56
2024/01/19 02:36:24;;;;;;;8.18;1.83;;;-0.90;99.90;;;;;;5036345;28;20114;-56
2024/01/19 02:38:49;;;;;;;7.93;2.33;;;-0.50;99.90;;;;;;5113505;28;20054;-54
2024/01/19 02:41:15;;;;;;;6.03;1.90;;;-0.50;99.90;;;;;;5113760;28;20044;-58
2024/01/19 02:43:41;;;;;;;11.98;2.35;;;-0.50;99.90;;;;;;5034011;28;20073;-53
2024/01/19 02:46:08;;;;;;;11.63;2.28;;;-0.80;99.90;;;;;;5030523;28;20099;-56
2024/01/19 02:48:34;;;;;;;18.45;1.52;;;-0.80;99.90;;;;;;5027992;28;20041;-56
2024/01/19 02:51:00;;;;;;;4.63;1.00;;;-0.20;99.90;;;;;;5111589;28;20124;-57
2024/01/19 02:53:25;;;;;;;5.85;1.20;;;0.10;99.90;;;;;;5074734;28;20044;-55
2024/01/19 02:55:51;;;;;;;5.93;1.00;;;-0.30;99.90;;;;;;5029191;28;20544;-55
2024/01/19 02:58:17;;;;;;;11.20;1.48;;;-0.40;99.90;;;;;;5110093;28;20039;-56
2024/01/19 03:00:42;;;;;;;3.80;0.85;;;0.30;99.90;;;;;;5113458;28;20447;-57
2024/01/19 03:03:08;;;;;;;3.67;0.82;;;-0.20;99.90;;;;;;5033348;28;20049;-57
2024/01/19 03:05:33;;;;;;;7.35;1.75;;;0.00;99.90;;;;;;5030223;28;20041;-55
2024/01/19 03:07:59;;;;;;;7.00;1.00;;;-0.20;99.90;;;;;;5030126;28;20476;-55
2024/01/19 03:10:25;;;;;;;4.75;1.23;;;0.70;99.90;;;;;;5030231;28;20124;-57
2024/01/19 03:12:50;;;;;;;3.60;0.95;;;0.70;99.90;;;;;;5093241;28;20082;-57
2024/01/19 03:15:16;;;;;;;3.38;0.82;;;0.40;99.90;;;;;;5029979;28;20507;-55
2024/01/19 03:17:42;;;;;;;5.45;0.80;;;0.40;99.90;;;;;;5029746;28;20065;-56
2024/01/19 03:20:08;;;;;;;5.93;0.80;;;0.00;99.90;;;;;;5038465;28;20042;-58
2024/01/19 03:22:33;;;;;;;5.45;0.80;;;0.10;99.90;;;;;;5112894;27;20089;-53
2024/01/19 03:24:59;;;;;;;2.65;0.80;;;0.90;99.90;;;;;;5033640;28;20037;-56
2024/01/19 03:27:25;;;;;;;4.75;0.77;;;0.70;99.90;;;;;;5029984;28;20029;-53
2024/01/19 03:29:50;;;;;;;2.53;0.55;;;0.60;99.90;;;;;;5063767;28;20031;-58
2024/01/19 03:32:16;;;;;;;2.90;0.80;;;0.40;99.90;;;;;;5113184;28;20032;-56
2024/01/19 03:34:42;;;;;;;4.88;1.13;;;0.40;99.90;;;;;;5113308;28;20763;-55
2024/01/19 03:37:08;;;;;;;4.35;0.70;;;0.00;99.90;;;;;;5113151;28;20084;-56
2024/01/19 03:39:33;;;;;;;7.75;1.20;;;0.40;99.90;;;;;;5078022;28;20127;-52
2024/01/19 03:42:00;;;;;;;5.95;1.15;;;0.20;99.90;;;;;;5109519;28;20039;-54
2024/01/19 03:44:26;;;;;;;3.92;1.15;;;0.40;99.90;;;;;;5108106;28;20042;-55
2024/01/19 03:46:53;;;;;;;6.28;1.50;;;0.30;99.90;;;;;;5112397;28;20027;-56
2024/01/19 03:49:22;;;;;;;4.13;1.40;;;-0.20;99.90;;;;;;5027702;28;20086;-55
2024/01/19 03:52:04;;;;;;;4.07;1.30;;;0.20;99.90;;;;;;5028704;28;20152;-56
2024/01/19 03:54:32;;;;;;;6.88;1.70;;;0.60;99.90;;;;;;5029556;28;20045;-56
2024/01/19 03:56:59;;;;;;;7.95;2.03;;;-0.10;99.90;;;;;;5029401;28;20033;-56
2024/01/19 03:59:26;;;;;;;8.23;1.50;;;0.60;99.90;;;;;;5074716;28;20034;-56
2024/01/19 04:01:53;;;;;;;7.47;2.20;;;0.40;99.90;;;;;;5105860;28;20056;-56
2024/01/19 04:04:19;;;;;;;10.98;2.40;;;-0.20;99.90;;;;;;5112242;28;20031;-55
2024/01/19 04:06:44;;;;;;;6.53;1.90;;;0.80;99.90;;;;;;5110625;28;20038;-53
2024/01/19 04:09:10;;;;;;;5.75;1.67;;;0.70;99.90;;;;;;5028471;28;20038;-56
2024/01/19 04:11:36;;;;;;;6.22;1.15;;;0.80;99.90;;;;;;5028673;28;20087;-55
2024/01/19 04:14:03;;;;;;;6.03;1.23;;;0.90;99.90;;;;;;5028825;28;20069;-55
2024/01/19 04:16:29;;;;;;;3.47;0.80;;;1.20;99.90;;;;;;5029140;28;20562;-51
2024/01/19 04:18:55;;;;;;;2.53;0.70;;;0.70;99.90;;;;;;5028832;28;20080;-58
2024/01/19 04:21:20;;;;;;;3.25;0.75;;;0.80;99.90;;;;;;5027175;28;20069;-56
2024/01/19 04:23:46;;;;;;;2.70;0.57;;;1.10;99.90;;;;;;5028848;28;20033;-56
2024/01/19 04:26:12;;;;;;;5.60;0.82;;;1.10;99.90;;;;;;5029040;28;20037;-56
2024/01/19 04:28:39;;;;;;;6.53;0.80;;;1.10;99.90;;;;;;5028850;28;20041;-55
2024/01/19 04:31:05;;;;;;;5.57;0.80;;;0.00;99.90;;;;;;5101066;28;20482;-56
2024/01/19 04:33:31;;;;;;;4.95;0.50;;;1.00;99.90;;;;;;5111498;28;20043;-55
2024/01/19 04:35:57;;;;;;;1.17;0.57;;;0.40;99.90;;;;;;5111744;28;20655;-55
2024/01/19 04:38:22;;;;;;;4.03;0.70;;;-0.20;99.90;;;;;;5111896;28;20031;-57
2024/01/19 04:40:48;;;;;;;1.83;0.63;;;-0.20;99.90;;;;;;5111582;28;20397;-57
2024/01/19 04:43:14;;;;;;;5.28;0.52;;;0.00;99.90;;;;;;5112032;28;20032;-56
2024/01/19 04:45:39;;;;;;;5.45;0.70;;;-0.40;99.90;;;;;;5111641;28;20474;-55
2024/01/19 04:48:05;;;;;;;1.83;0.50;;;-0.20;99.90;;;;;;5111386;28;20638;-53
2024/01/19 04:50:31;;;;;;;6.47;0.80;;;0.30;99.90;;;;;;5108769;28;20035;-55
2024/01/19 04:52:56;;;;;;;2.92;0.60;;;0.40;99.90;;;;;;5107641;28;20039;-56
2024/01/19 04:55:22;;;;;;;0.85;0.50;;;-0.60;99.90;;;;;;5082592;28;20041;-53
2024/01/19 04:57:48;;;;;;;3.85;1.30;;;0.30;99.90;;;;;;5028289;28;20041;-57
2024/01/19 05:00:14;;;;;;;3.95;0.68;;;0.20;99.90;;;;;;5028344;28;20061;-53
2024/01/19 05:02:40;;;;;;;4.47;0.60;;;-0.80;99.90;;;;;;5104650;28;20044;-58
2024/01/19 05:05:06;;;;;;;1.23;0.40;;;-0.40;99.90;;;;;;5031231;28;20075;-55
2024/01/19 05:07:32;;;;;;;2.10;0.40;;;-0.10;99.90;;;;;;5027096;28;20073;-52
2024/01/19 05:09:58;;;;;;;3.53;0.50;;;0.10;99.90;;;;;;5028231;28;20127;-57
2024/01/19 05:12:23;;;;;;;3.53;0.35;;;0.10;99.90;;;;;;5028204;28;20125;-57
2024/01/19 05:14:49;;;;;;;2.80;0.50;;;-0.20;99.90;;;;;;5036798;28;20500;-52
2024/01/19 05:17:15;;;;;;;6.57;0.77;;;0.00;99.90;;;;;;5110927;28;20039;-55
2024/01/19 05:19:40;;;;;;;4.10;0.50;;;-0.20;99.90;;;;;;5110479;28;20035;-54
2024/01/19 05:22:07;;;;;;;2.25;0.60;;;0.00;99.90;;;;;;5110854;28;20047;-58
2024/01/19 05:24:33;;;;;;;0.90;0.30;;;0.20;99.90;;;;;;5111437;28;20471;-58
2024/01/19 05:26:59;;;;;;;1.67;0.50;;;-0.30;99.90;;;;;;5103120;28;20027;-57
2024/01/19 05:29:25;;;;;;;1.10;0.50;;;0.40;99.90;;;;;;5110681;28;20052;-57
2024/01/19 05:31:50;;;;;;;4.75;0.50;;;0.30;99.90;;;;;;5029967;28;20109;-54
2024/01/19 05:34:16;;;;;;;3.60;0.70;;;0.10;99.90;;;;;;5031719;28;20487;-54
2024/01/19 05:36:42;;;;;;;3.35;0.50;;;0.30;99.90;;;;;;5110660;28;20044;-55
2024/01/19 05:39:08;;;;;;;3.22;0.60;;;-0.20;99.90;;;;;;5027612;28;20033;-55
2024/01/19 05:41:34;;;;;;;5.30;0.50;;;0.10;99.90;;;;;;5027740;28;20041;-55
2024/01/19 05:44:00;;;;;;;6.35;0.68;;;-0.70;99.90;;;;;;5027884;28;20097;-56
2024/01/19 05:46:26;;;;;;;2.83;0.75;;;0.10;99.90;;;;;;5049506;28;20116;-54
2024/01/19 05:48:51;;;;;;;2.72;0.60;;;-0.80;99.90;;;;;;5026110;28;20178;-53
2024/01/19 05:51:17;;;;;;;2.88;0.70;;;-0.80;99.90;;;;;;5027216;28;20045;-54
2024/01/19 05:53:44;;;;;;;4.00;0.60;;;0.00;99.90;;;;;;5027714;28;20380;-54
2024/01/19 05:56:10;;;;;;;1.98;0.52;;;-0.70;99.90;;;;;;5108755;28;20048;-55
2024/01/19 05:58:35;;;;;;;6.15;0.80;;;-0.30;99.90;;;;;;5110766;28;20103;-56
2024/01/19 06:01:05;;;;;;;3.40;0.60;;;-0.10;99.90;;;;;;5111103;28;20128;-56
2024/01/19 06:03:35;;;;;;;3.92;0.73;;;-1.00;99.90;;;;;;5032003;28;20038;-55
2024/01/19 06:06:04;;;;;;;2.88;0.88;;;-0.80;99.90;;;;;;5027712;28;20082;-56
2024/01/19 06:08:31;;;;;;;4.40;0.98;;;-0.20;99.90;;;;;;5106118;28;20036;-55
2024/01/19 06:10:57;;;;;;;6.55;0.85;;;-0.20;99.90;;;;;;5110450;28;20039;-57
2024/01/19 06:13:23;;;;;;;4.35;0.90;;;-0.40;99.90;;;;;;5110696;28;20055;-57
2024/01/19 06:15:49;;;;;;;8.77;1.00;;;-0.60;99.90;;;;;;5108002;28;20569;-54
2024/01/19 06:18:15;;;;;;;5.25;0.95;;;-0.40;99.90;;;;;;5110292;28;20363;-57
2024/01/19 06:20:41;;;;;;;2.75;0.60;;;-0.90;99.90;;;;;;5110248;28;20040;-56
2024/01/19 06:23:08;;;;;;;5.13;0.82;;;-1.10;99.90;;;;;;5109141;28;20492;-57
2024/01/19 06:25:35;;;;;;;3.63;0.93;;;-1.50;99.90;;;;;;5110769;28;20043;-55
2024/01/19 06:28:02;;;;;;;1.52;0.68;;;-1.00;99.90;;;;;;5110551;28;20418;-54
2024/01/19 06:30:28;;;;;;;5.82;0.93;;;-1.50;99.90;;;;;;5103856;28;20450;-57
2024/01/19 06:32:53;;;;;;;4.32;0.80;;;-1.50;99.90;;;;;;5039220;28;20042;-55
2024/01/19 06:35:19;;;;;;;3.35;0.95;;;-1.60;99.90;;;;;;5113895;28;20036;-56
2024/01/19 06:37:45;;;;;;;2.38;0.55;;;-1.20;99.90;;;;;;5114356;28;20100;-54
2024/01/19 06:40:10;;;;;;;5.10;1.23;;;-1.70;99.90;;;;;;5114311;28;20454;-51
2024/01/19 06:42:39;;;;;;;2.00;0.65;;;-1.60;99.90;;;;;;5031078;28;20073;-54
2024/01/19 06:45:05;;;;;;;4.35;0.70;;;-1.90;99.90;;;;;;5078053;28;20090;-56
2024/01/19 06:47:31;;;;;;;3.72;0.88;;;-1.20;99.90;;;;;;5113639;28;20078;-52
2024/01/19 06:49:57;;;;;;;6.18;0.65;;;-1.80;99.90;;;;;;5097763;28;20554;-54
2024/01/19 06:52:23;;;;;;;8.80;0.70;;;-1.80;99.90;;;;;;5102961;28;20035;-54
2024/01/19 06:54:49;;;;;;;4.95;0.77;;;-1.90;99.90;;;;;;5113711;28;20039;-53
2024/01/19 06:57:14;;;;;;;5.07;0.85;;;-1.50;99.90;;;;;;5113709;28;20115;-55
2024/01/19 06:59:40;;;;;;;3.58;0.93;;;-1.90;99.90;;;;;;5113965;28;20448;-54
2024/01/19 07:02:06;;;;;;;4.32;1.20;;;-1.40;99.90;;;;;;5113723;28;20032;-53
2024/01/19 07:04:32;;;;;;;8.98;1.88;;;-1.10;99.90;;;;;;5113356;28;20043;-56
2024/01/19 07:06:58;;;;;;;6.40;1.50;;;-1.00;99.90;;;;;;5113523;28;20031;-53
2024/01/19 07:09:26;;;;;;;6.32;1.35;;;-1.30;99.90;;;;;;5103661;27;20034;-55
2024/01/19 07:11:52;;;;;;;5.68;1.30;;;-1.70;99.90;;;;;;5112909;28;20043;-53
2024/01/19 07:14:18;;;;;;;4.85;1.20;;;-0.80;99.90;;;;;;5014534;28;20041;-51
2024/01/19 07:16:43;;;;;;;4.28;1.10;;;-0.90;99.90;;;;;;5080762;28;20103;-51
2024/01/19 07:19:10;;;;;;;5.80;1.40;;;-1.60;99.90;;;;;;5112775;28;20032;-55
2024/01/19 07:21:40;;;;;;;8.25;1.27;;;-0.50;99.90;;;;;;5112964;28;20043;-52
2024/01/19 07:24:07;;;;;;;6.55;1.30;;;-0.50;99.90;;;;;;5095011;28;20477;-55
2024/01/19 07:26:33;;;;;;;7.22;1.70;;;-0.90;99.90;;;;;;5105609;28;20156;-56
2024/01/19 07:29:04;;;;;;;7.75;1.40;;;-1.10;99.90;;;;;;5083375;27;20043;-54
2024/01/19 07:31:30;;;;;;;3.42;1.13;;;-0.50;99.90;;;;;;5093300;28;20118;-57
2024/01/19 07:33:56;;;;;;;4.63;1.95;;;-0.90;99.90;;;;;;5113016;28;20035;-55
2024/01/19 07:36:22;;;;;;;3.47;1.80;;;-1.40;99.90;;;;;;5112833;27;20046;-54
2024/01/19 07:38:48;;;;;;;4.15;1.75;;;-1.50;99.90;;;;;;5112776;27;20050;-53
2024/01/19 07:41:13;;;;;;;3.58;1.38;;;-1.50;99.90;;;;;;5112839;28;20047;-53
2024/01/19 07:43:39;;;;;;;4.95;1.20;;;-0.80;99.90;;;;;;5030855;28;20044;-53
2024/01/19 07:46:05;;;;;;;4.78;1.50;;;-1.40;99.90;;;;;;5029389;28;20124;-52
2024/01/19 07:48:31;;;;;;;4.32;1.58;;;-0.80;99.90;;;;;;5054065;28;20028;-52
2024/01/19 07:50:57;;;;;;;3.35;1.30;;;-1.40;99.90;;;;;;5010713;28;20052;-51
2024/01/19 07:53:22;;;;;;;5.30;1.95;;;-1.00;99.90;;;;;;5082020;28;20078;-54
2024/01/19 07:55:48;;;;;;;6.07;1.40;;;-1.20;99.90;;;;;;5077791;28;20065;-56
2024/01/19 07:58:14;;;;;;;3.83;1.42;;;-1.00;99.90;;;;;;5087810;28;20035;-57
2024/01/19 08:00:39;;;;;;;4.53;1.38;;;-1.20;99.90;;;;;;5023741;28;20178;-53
2024/01/19 08:03:05;;;;;;;6.63;1.55;;;-1.10;99.90;;;;;;5078642;28;20033;-55
2024/01/19 08:05:31;;;;;;;5.95;1.85;;;-1.50;99.90;;;;;;5077652;28;20443;-54
2024/01/19 08:07:56;;;;;;;4.47;1.63;;;-1.70;99.90;;;;;;5093299;28;20035;-54
2024/01/19 08:10:22;;;;;;;5.82;1.50;;;-1.70;99.90;;;;;;5029255;28;20029;-52
2024/01/19 08:12:48;;;;;;;9.80;2.38;;;-1.80;99.90;;;;;;5020685;28;20046;-54
2024/01/19 08:15:14;;;;;;;7.18;2.13;;;-1.60;99.90;;;;;;5022840;28;20072;-55
2024/01/19 08:17:40;;;;;;;8.25;2.30;;;-1.80;99.90;;;;;;5019311;28;20034;-53
2024/01/19 08:20:10;;;;;;;9.73;2.88;;;-1.60;99.90;;;;;;5025258;28;20044;-57
2024/01/19 08:22:36;;;;;;;6.80;3.03;;;-1.40;99.90;;;;;;5015166;28;20159;-53
2024/01/19 08:25:02;;;;;;;12.88;3.10;;;-1.00;99.90;;;;;;5027545;28;20478;-52
2024/01/19 08:27:28;;;;;;;9.48;2.80;;;-1.40;99.90;;;;;;5028551;28;20036;-55
2024/01/19 08:29:53;;;;;;;9.02;3.17;;;-1.50;99.90;;;;;;5025751;28;20113;-55
2024/01/19 08:32:19;;;;;;;9.30;3.45;;;-0.90;99.90;;;;;;5027076;28;20524;-55
2024/01/19 08:34:45;;;;;;;9.40;3.10;;;-0.80;99.90;;;;;;5023220;28;20038;-56
2024/01/19 08:37:11;;;;;;;10.68;3.67;;;-0.60;99.90;;;;;;5022935;28;20487;-58
2024/01/19 08:39:38;;;;;;;8.65;3.70;;;-0.60;99.90;;;;;;5023940;28;20035;-54
2024/01/19 08:42:05;;;;;;;9.73;4.32;;;-1.40;99.90;;;;;;5018927;28;20409;-55
2024/01/19 08:44:31;;;;;;;9.18;3.60;;;-0.40;99.90;;;;;;5019152;28;20026;-53
2024/01/19 08:46:57;;;;;;;8.55;3.90;;;-1.00;99.90;;;;;;5027226;28;20403;-55
2024/01/19 08:49:24;;;;;;;14.30;4.13;;;-1.30;99.90;;;;;;5023608;28;20476;-56
2024/01/19 08:51:51;;;;;;;9.38;3.78;;;-1.20;99.90;;;;;;5025269;28;20049;-53
2024/01/19 08:54:17;;;;;;;9.95;3.92;;;-0.70;99.90;;;;;;5018867;28;20107;-54
2024/01/19 08:56:43;;;;;;;8.55;4.07;;;-1.00;99.90;;;;;;5022598;28;20057;-54
2024/01/19 08:59:09;;;;;;;11.30;4.13;;;-1.20;99.90;;;;;;5022669;28;20040;-56
2024/01/19 09:01:35;;;;;;;12.80;4.20;;;-1.10;99.90;;;;;;5017039;28;20084;-55
2024/01/19 09:04:01;;;;;;;10.48;3.80;;;-1.10;99.90;;;;;;5027115;28;20030;-53
2024/01/19 09:06:27;;;;;;;10.48;4.57;;;-1.10;99.90;;;;;;5022144;28;20049;-53
2024/01/19 09:08:52;;;;;;;13.32;5.30;;;-0.90;99.90;;;;;;5024547;28;20091;-53
2024/01/19 09:11:18;;;;;;;12.90;4.35;;;-0.40;99.90;;;;;;5018329;28;20049;-55
2024/01/19 09:13:44;;;;;;;10.45;4.20;;;-0.30;99.90;;;;;;5019643;28;20043;-53
2024/01/19 09:16:10;;;;;;;10.45;3.80;;;-0.80;99.90;;;;;;5002042;28;20498;-53
2024/01/19 09:18:37;;;;;;;10.93;4.10;;;-1.10;99.90;;;;;;5009632;28;20045;-55
2024/01/19 09:21:03;;;;;;;10.60;4.57;;;-0.70;99.90;;;;;;5018847;28;20367;-57
2024/01/19 09:23:29;;;;;;;10.75;4.20;;;-0.40;99.90;;;;;;4998524;28;20065;-54
2024/01/19 09:25:55;;;;;;;13.98;4.20;;;-0.90;99.90;;;;;;5026556;28;20032;-55
2024/01/19 09:28:20;;;;;;;9.75;4.05;;;-0.70;99.90;;;;;;5023576;28;20063;-53
2024/01/19 09:30:47;;;;;;;10.98;4.25;;;-0.90;99.90;;;;;;5002975;28;20080;-55
2024/01/19 09:33:16;;;;;;;12.45;4.78;;;-0.10;99.90;;;;;;5018277;28;20042;-56
2024/01/19 09:35:42;;;;;;;16.60;4.65;;;-0.10;99.90;;;;;;5007976;28;20474;-55
2024/01/19 09:38:09;;;;;;;10.77;4.13;;;-0.80;99.90;;;;;;5006516;28;20044;-53
2024/01/19 09:40:34;;;;;;;13.32;4.15;;;-0.70;99.90;;;;;;5034648;28;20042;-53
2024/01/19 09:43:01;;;;;;;12.90;4.32;;;0.00;99.90;;;;;;5030359;28;20062;-55
2024/01/19 09:45:38;;;;;;;11.88;4.10;;;-0.40;99.90;;;;;;5010848;28;20034;-58
2024/01/19 09:48:16;;;;;;;10.70;3.55;;;0.20;99.90;;;;;;4996212;28;20045;-57
2024/01/19 09:50:45;;;;;;;13.27;4.28;;;-0.40;99.90;;;;;;5009004;28;20402;-53
2024/01/19 09:53:32;;;;;;;10.38;3.97;;;0.40;99.90;;;;;;5026021;28;20038;-58
2024/01/19 09:55:59;;;;;;;6.97;3.83;;;0.50;99.90;;;;;;5030605;28;20401;-55
2024/01/19 09:58:26;;;;;;;10.55;4.07;;;0.00;99.90;;;;;;5025128;28;20042;-53
2024/01/19 10:00:53;;;;;;;9.93;3.55;;;0.10;99.90;;;;;;5021752;28;20041;-57
2024/01/19 10:03:18;;;;;;;10.98;3.47;;;0.70;99.90;;;;;;5016297;28;20450;-58
2024/01/19 10:05:45;;;;;;;11.18;3.53;;;0.60;99.90;;;;;;5025123;28;20136;-54
2024/01/19 10:08:12;;;;;;;6.68;3.10;;;0.30;99.90;;;;;;5020474;28;20068;-55
2024/01/19 10:10:44;;;;;;;6.38;2.97;;;0.30;99.90;;;;;;5019633;28;20042;-53
2024/01/19 10:13:11;;;;;;;8.45;2.88;;;0.80;99.90;;;;;;5019957;28;20106;-56
2024/01/19 10:15:36;;;;;;;8.60;3.15;;;0.50;99.90;;;;;;5017452;28;20042;-55
2024/01/19 10:18:03;;;;;;;11.23;3.05;;;0.70;99.90;;;;;;5026831;28;20085;-53
2024/01/19 10:20:30;;;;;;;7.30;3.00;;;0.40;99.90;;;;;;5026152;28;20054;-58
2024/01/19 10:22:56;;;;;;;7.50;3.13;;;0.60;99.90;;;;;;5020067;28;20109;-56
2024/01/19 10:25:21;;;;;;;9.75;3.35;;;1.00;99.90;;;;;;5023912;28;20140;-55
2024/01/19 10:27:51;;;;;;;8.80;2.83;;;1.10;99.90;;;;;;5024441;28;20042;-51
2024/01/19 10:30:24;;;;;;;8.23;2.67;;;2.00;99.90;;;;;;5024359;28;20041;-56
2024/01/19 10:32:52;;;;;;;9.25;2.53;;;2.30;99.90;;;;;;5016817;28;20042;-56
2024/01/19 10:35:21;;;;;;;11.00;2.60;;;2.60;99.90;;;;;;5028659;28;20073;-58
2024/01/19 10:37:48;;;;;;;11.38;2.95;;;3.20;99.90;;;;;;5027207;28;20044;-57
2024/01/19 10:40:28;;;;;;;7.78;2.95;;;2.60;99.90;;;;;;5023183;28;20091;-58
2024/01/19 10:42:56;;;;;;;8.43;2.35;;;2.70;99.90;;;;;;5004345;28;20050;-55
2024/01/19 10:45:24;;;;;;;7.55;2.60;;;2.70;99.90;;;;;;5036450;28;20034;-57
2024/01/19 10:47:54;;;;;;;9.43;2.63;;;3.20;99.90;;;;;;5024399;28;20032;-55
2024/01/19 10:50:24;;;;;;;7.93;2.50;;;3.40;99.90;;;;;;5026828;28;20517;-57
2024/01/19 10:52:54;;;;;;;6.78;2.30;;;3.70;99.90;;;;;;5025031;28;20038;-56
2024/01/19 10:55:20;;;;;;;12.32;2.97;;;3.90;99.90;;;;;;5018295;28;20034;-57
2024/01/19 10:57:52;;;;;;;7.38;2.53;;;3.90;99.90;;;;;;5003652;28;20031;-58
2024/01/19 11:00:27;;;;;;;12.68;2.35;;;4.20;99.90;;;;;;5027937;28;20131;-60
2024/01/19 11:03:00;;;;;;;7.18;2.50;;;4.20;99.90;;;;;;5016716;28;20034;-53
2024/01/19 11:05:26;;;;;;;7.55;2.55;;;4.30;99.90;;;;;;5021118;28;20028;-56
2024/01/19 11:07:54;;;;;;;6.68;2.30;;;4.20;99.90;;;;;;5025165;28;20042;-58
2024/01/19 11:10:21;;;;;;;6.60;2.83;;;3.90;99.90;;;;;;5018526;28;20038;-53
2024/01/19 11:12:55;;;;;;;9.25;2.50;;;4.30;99.90;;;;;;5028025;28;20054;-58
2024/01/19 11:15:35;;;;;;;9.52;2.72;;;3.50;99.90;;;;;;5019050;28;20152;-58
2024/01/19 11:18:04;;;;;;;9.40;2.72;;;3.20;99.90;;;;;;5022464;28;20037;-57
2024/01/19 11:20:33;;;;;;;9.10;3.08;;;3.10;99.90;;;;;;5022766;28;20044;-56
2024/01/19 11:23:00;;;;;;;13.93;3.25;;;3.00;99.90;;;;;;5027265;28;20042;-57
2024/01/19 11:25:56;;;;;;;13.35;2.88;;;3.00;99.90;;;;;;5022267;28;20171;-57
2024/01/19 11:28:37;;;;;;;10.88;2.95;;;3.00;99.90;;;;;;5020602;28;20543;-58
2024/01/19 11:31:18;;;;;;;13.57;3.03;;;3.20;99.90;;;;;;5028429;28;20134;-56
2024/01/19 11:33:43;;;;;;;10.20;2.60;;;3.50;99.90;;;;;;5018673;28;20426;-60
2024/01/19 11:36:10;;;;;;;9.18;2.55;;;3.80;99.90;;;;;;5024930;28;20143;-60
2024/01/19 11:38:38;;;;;;;6.35;2.55;;;4.10;99.90;;;;;;5034163;28;20020;-57
2024/01/19 11:41:05;;;;;;;7.68;2.75;;;4.30;99.90;;;;;;5033552;28;20398;-58
2024/01/19 11:43:38;;;;;;;7.68;2.78;;;4.70;99.90;;;;;;5026122;28;20027;-57
2024/01/19 11:46:04;;;;;;;8.67;2.90;;;4.80;99.90;;;;;;5024593;28;20459;-58
2024/01/19 11:48:44;;;;;;;9.80;2.42;;;5.10;99.90;;;;;;5004912;28;20037;-58
2024/01/19 11:51:33;;;;;;;13.07;2.90;;;5.30;99.90;;;;;;5026514;28;20042;-59
2024/01/19 11:54:03;;;;;;;6.60;2.63;;;5.50;99.90;;;;;;5008025;28;20104;-57
2024/01/19 11:56:30;;;;;;;15.85;2.55;;;5.60;99.90;;;;;;5031817;28;20065;-56
2024/01/19 11:58:56;;;;;;;16.98;2.88;;;5.90;99.90;;;;;;5030241;28;20434;-55
2024/01/19 12:01:22;;;;;;;8.48;2.42;;;5.70;99.90;;;;;;5025174;28;20037;-58
2024/01/19 12:03:53;;;;;;;11.25;2.67;;;5.60;99.90;;;;;;5031634;28;20031;-57
2024/01/19 12:06:19;;;;;;;8.07;2.03;;;5.60;99.90;;;;;;5028986;28;20493;-57
2024/01/19 14:12:59;;;;;;;10.20;2.25;;;5.00;99.90;;;;;;5106724;27;20928;-59
2024/01/19 14:15:25;;;;;;;11.10;2.30;;;4.80;99.90;;;;;;5087399;28;20102;-59
2024/01/19 14:17:50;;;;;;;7.60;2.33;;;4.50;99.90;;;;;;5084919;28;20483;-57
2024/01/19 14:20:16;;;;;;;11.40;2.58;;;4.40;99.90;;;;;;5086346;28;20235;-58
2024/01/19 14:22:42;;;;;;;7.65;2.22;;;4.30;99.90;;;;;;5080862;28;20036;-56
2024/01/19 14:25:08;;;;;;;8.73;2.50;;;4.40;99.90;;;;;;5085203;28;20032;-57
2024/01/19 14:27:35;;;;;;;12.30;2.70;;;4.10;99.90;;;;;;5085120;28;20478;-57
2024/01/19 14:30:05;;;;;;;10.60;2.60;;;4.10;99.90;;;;;;5085290;28;20453;-56
2024/01/19 14:32:31;;;;;;;13.32;2.72;;;4.10;99.90;;;;;;5085004;28;20120;-59
2024/01/19 14:34:57;;;;;;;8.35;2.38;;;4.00;99.90;;;;;;5085927;28;20149;-57
2024/01/19 14:37:23;;;;;;;10.13;3.13;;;4.00;99.90;;;;;;5082026;28;20540;-59
2024/01/19 14:39:48;;;;;;;9.05;2.47;;;4.00;99.90;;;;;;5086461;28;20098;-59
2024/01/19 14:42:14;;;;;;;10.43;2.70;;;3.90;99.90;;;;;;5085732;28;20076;-56
2024/01/19 14:44:40;;;;;;;12.38;2.58;;;3.90;99.90;;;;;;5084739;28;20040;-56
2024/01/19 14:47:06;;;;;;;9.73;2.78;;;3.80;99.90;;;;;;5086037;28;20065;-59
2024/01/19 14:49:36;;;;;;;7.82;2.95;;;3.70;99.90;;;;;;5085813;28;20029;-57